createdAt,value
2023-05-08T00:00:47.496Z,2.97
2023-05-08T00:03:14.270Z,3.38
2023-05-08T00:05:43.875Z,4.00
2023-05-08T00:08:10.568Z,3.05
2023-05-08T00:10:37.253Z,2.78
2023-05-08T00:13:03.916Z,2.95
2023-05-08T00:15:30.530Z,3.03
2023-05-08T00:17:57.567Z,3.60
2023-05-08T00:20:24.205Z,2.58
2023-05-08T00:22:50.788Z,2.83
2023-05-08T00:25:17.444Z,2.38
2023-05-08T00:27:44.060Z,3.13
2023-05-08T00:30:11.283Z,3.08
2023-05-08T00:32:38.245Z,2.88
2023-05-08T00:35:05.195Z,3.72
2023-05-08T00:37:31.696Z,4.03
2023-05-08T00:39:58.291Z,2.80
2023-05-08T00:42:24.846Z,4.22
2023-05-08T00:44:52.323Z,3.45
2023-05-08T00:47:22.155Z,3.30
2023-05-08T00:49:49.246Z,3.30
2023-05-08T00:52:16.784Z,3.60
2023-05-08T00:54:44.331Z,2.95
2023-05-08T00:57:11.181Z,3.08
2023-05-08T00:59:41.493Z,3.10
2023-05-08T01:02:08.811Z,4.35
2023-05-08T01:04:37.045Z,4.75
2023-05-08T01:07:03.680Z,4.00
2023-05-08T01:09:30.248Z,4.32
2023-05-08T01:11:56.925Z,3.55
2023-05-08T01:14:39.806Z,2.92
2023-05-08T01:17:23.655Z,3.47
2023-05-08T01:20:19.267Z,3.33
2023-05-08T01:23:30.587Z,3.28
2023-05-08T01:26:22.468Z,3.65
2023-05-08T01:29:08.467Z,3.33
2023-05-08T01:31:54.282Z,3.20
2023-05-08T01:34:26.782Z,4.25
2023-05-08T01:37:01.055Z,4.00
2023-05-08T01:39:47.322Z,4.32
2023-05-08T01:42:33.998Z,5.82
2023-05-08T01:47:33.133Z,4.60
2023-05-08T01:50:16.818Z,4.00
2023-05-08T01:52:51.459Z,4.03
2023-05-08T01:55:24.545Z,4.53
2023-05-08T01:57:54.220Z,3.13
2023-05-08T02:00:23.818Z,3.20
2023-05-08T02:02:52.509Z,3.78
2023-05-08T02:05:21.665Z,3.90
2023-05-08T02:10:16.632Z,4.18
2023-05-08T02:12:44.591Z,3.92
2023-05-08T02:15:14.378Z,3.50
2023-05-08T02:17:43.574Z,4.78
2023-05-08T02:20:14.860Z,3.88
2023-05-08T02:22:44.666Z,4.53
2023-05-08T02:25:14.528Z,3.55
2023-05-08T02:27:46.574Z,4.32
2023-05-08T02:30:16.255Z,3.70
2023-05-08T02:32:45.060Z,4.38
2023-05-08T02:35:19.668Z,4.60
2023-05-08T02:37:49.671Z,3.47
2023-05-08T02:40:18.627Z,4.25
2023-05-08T02:42:46.690Z,4.45
2023-05-08T02:45:14.115Z,3.88
2023-05-08T02:47:52.079Z,4.30
2023-05-08T02:50:24.316Z,4.00
2023-05-08T02:53:03.326Z,4.20
2023-05-08T02:55:42.831Z,4.10
2023-05-08T02:58:34.994Z,4.68
2023-05-08T03:01:11.546Z,4.30
2023-05-08T03:03:42.104Z,3.72
2023-05-08T03:06:13.752Z,3.55
2023-05-08T03:08:42.193Z,4.30
2023-05-08T03:11:14.545Z,4.20
2023-05-08T03:13:42.946Z,4.35
2023-05-08T03:16:20.604Z,4.55
2023-05-08T03:19:04.926Z,4.90
2023-05-08T03:21:32.347Z,4.47
2023-05-08T03:24:02.245Z,4.93
2023-05-08T03:26:29.428Z,4.20
2023-05-08T03:28:57.639Z,4.82
2023-05-08T03:31:25.739Z,3.92
2023-05-08T03:33:54.397Z,4.68
2023-05-08T03:36:22.527Z,4.53
2023-05-08T03:38:49.361Z,4.68
2023-05-08T03:41:15.972Z,4.90
2023-05-08T03:43:43.277Z,4.82
2023-05-08T03:46:12.520Z,5.55
2023-05-08T03:48:41.323Z,4.80
2023-05-08T03:51:08.376Z,4.68
2023-05-08T03:53:34.987Z,4.97
2023-05-08T03:56:02.321Z,4.20
2023-05-08T03:58:37.293Z,4.28
2023-05-08T04:03:53.660Z,4.82
2023-05-08T04:06:48.518Z,4.63
2023-05-08T04:09:34.943Z,4.00
2023-05-08T04:12:22.100Z,3.88
2023-05-08T04:14:55.681Z,4.82
2023-05-08T04:17:41.198Z,4.30
2023-05-08T04:20:12.171Z,4.38
2023-05-08T04:22:40.563Z,4.13
2023-05-08T04:25:09.121Z,4.60
2023-05-08T04:27:38.110Z,4.25
2023-05-08T04:30:05.512Z,4.95
2023-05-08T04:32:33.687Z,4.70
2023-05-08T04:35:00.851Z,5.60
2023-05-08T04:37:31.823Z,4.97
2023-05-08T04:39:59.223Z,5.05
2023-05-08T04:42:26.405Z,4.80
2023-05-08T04:44:54.038Z,3.97
2023-05-08T04:47:21.319Z,5.13
2023-05-08T04:49:47.935Z,5.00
2023-05-08T04:52:14.553Z,5.63
2023-05-08T04:54:41.307Z,5.82
2023-05-08T04:57:08.303Z,5.97
2023-05-08T04:59:34.874Z,4.97
2023-05-08T05:02:06.132Z,5.13
2023-05-08T05:04:32.758Z,4.63
2023-05-08T05:06:59.417Z,5.85
2023-05-08T05:09:26.033Z,5.60
2023-05-08T05:11:52.567Z,5.97
2023-05-08T05:14:19.220Z,5.25
2023-05-08T05:16:45.967Z,4.22
2023-05-08T05:19:12.918Z,5.05
2023-05-08T05:21:39.650Z,5.18
2023-05-08T05:24:06.619Z,5.78
2023-05-08T05:26:34.785Z,5.38
2023-05-08T05:29:02.332Z,5.53
2023-05-08T05:31:29.935Z,5.90
2023-05-08T05:33:56.624Z,6.18
2023-05-08T05:36:25.206Z,6.03
2023-05-08T05:38:51.744Z,5.35
2023-05-08T05:41:18.296Z,5.40
2023-05-08T05:43:44.857Z,5.93
2023-05-08T05:46:13.492Z,6.10
2023-05-08T05:48:40.227Z,6.43
2023-05-08T05:51:06.888Z,6.38
2023-05-08T05:53:33.453Z,5.75
2023-05-08T05:56:00.132Z,6.32
2023-05-08T05:58:28.460Z,6.53
2023-05-08T06:00:55.115Z,6.60
2023-05-08T06:03:21.685Z,6.20
2023-05-08T06:05:48.337Z,6.00
2023-05-08T06:08:17.871Z,6.55
2023-05-08T06:10:44.502Z,7.28
2023-05-08T06:13:11.368Z,7.80
2023-05-08T06:15:37.921Z,9.43
2023-05-08T06:18:04.945Z,7.65
2023-05-08T06:20:31.464Z,9.05
2023-05-08T06:22:58.011Z,8.95
2023-05-08T06:25:24.744Z,8.38
2023-05-08T06:27:51.552Z,9.10
2023-05-08T06:30:18.115Z,8.15
2023-05-08T06:32:44.720Z,9.25
2023-05-08T06:35:12.389Z,9.05
2023-05-08T06:37:41.985Z,8.43
2023-05-08T06:40:12.024Z,9.45
2023-05-08T06:42:44.113Z,8.98
2023-05-08T06:45:11.317Z,8.93
2023-05-08T06:47:38.605Z,9.73
2023-05-08T06:50:05.803Z,9.02
2023-05-08T06:52:32.803Z,10.07
2023-05-08T06:54:59.304Z,8.57
2023-05-08T06:57:27.216Z,8.77
2023-05-08T06:59:54.246Z,9.43
2023-05-08T07:02:20.787Z,10.15
2023-05-08T07:04:48.193Z,9.50
2023-05-08T07:07:15.327Z,8.90
2023-05-08T07:09:42.038Z,9.75
2023-05-08T07:12:08.978Z,11.27
2023-05-08T07:14:35.510Z,10.20
2023-05-08T07:17:06.905Z,10.75
2023-05-08T07:19:36.440Z,10.93
2023-05-08T07:22:03.278Z,9.55
2023-05-08T07:24:29.931Z,9.88
2023-05-08T07:26:56.623Z,10.52
2023-05-08T07:29:23.100Z,11.10
2023-05-08T07:31:50.910Z,11.95
2023-05-08T07:34:17.880Z,12.25
2023-05-08T07:36:45.151Z,10.05
2023-05-08T07:39:11.619Z,13.48
2023-05-08T07:41:40.986Z,12.05
2023-05-08T07:44:08.063Z,12.85
2023-05-08T07:46:34.929Z,11.85
2023-05-08T07:49:01.727Z,12.23
2023-05-08T07:51:28.931Z,13.50
2023-05-08T07:53:55.724Z,11.57
2023-05-08T07:56:25.177Z,11.90
2023-05-08T07:58:51.780Z,13.20
2023-05-08T08:01:18.496Z,12.10
2023-05-08T08:03:46.181Z,11.50
2023-05-08T08:06:13.332Z,11.82
2023-05-08T08:08:41.307Z,12.02
2023-05-08T08:11:07.925Z,13.68
2023-05-08T08:13:34.624Z,12.23
2023-05-08T08:16:04.988Z,13.27
2023-05-08T08:18:35.724Z,12.85
2023-05-08T08:21:06.324Z,12.07
2023-05-08T08:23:33.241Z,13.23
2023-05-08T08:25:59.880Z,13.32
2023-05-08T08:28:26.645Z,12.63
2023-05-08T08:30:53.328Z,12.45
2023-05-08T08:33:19.918Z,13.80
2023-05-08T08:35:46.591Z,12.20
2023-05-08T08:38:13.358Z,13.43
2023-05-08T08:40:46.580Z,12.48
2023-05-08T08:43:13.341Z,11.88
2023-05-08T08:45:39.971Z,12.73
2023-05-08T08:48:11.763Z,12.13
2023-05-08T08:50:43.058Z,12.63
2023-05-08T08:53:24.607Z,12.02
2023-05-08T08:55:55.743Z,13.23
2023-05-08T08:58:31.403Z,12.45
2023-05-08T09:01:00.563Z,11.95
2023-05-08T09:03:27.892Z,12.52
2023-05-08T09:05:55.296Z,12.55
2023-05-08T09:08:21.911Z,12.43
2023-05-08T09:10:48.569Z,12.52
2023-05-08T09:13:16.620Z,12.60
2023-05-08T09:15:43.945Z,12.73
2023-05-08T09:18:10.464Z,12.10
2023-05-08T09:20:37.327Z,12.57
2023-05-08T09:23:04.205Z,12.10
2023-05-08T09:25:44.266Z,12.40
2023-05-08T09:28:24.319Z,12.18
2023-05-08T09:30:51.837Z,10.65
2023-05-08T09:33:18.441Z,11.68
2023-05-08T09:35:44.887Z,12.38
2023-05-08T09:38:38.685Z,13.02
2023-05-08T09:41:12.137Z,12.05
2023-05-08T09:43:39.090Z,11.18
2023-05-08T09:46:26.672Z,12.32
2023-05-08T09:48:55.353Z,11.63
2023-05-08T09:51:23.414Z,11.48
2023-05-08T09:53:57.366Z,11.95
2023-05-08T09:56:53.393Z,11.98
2023-05-08T09:59:24.165Z,12.75
2023-05-08T10:01:50.964Z,11.98
2023-05-08T10:04:17.547Z,12.95
2023-05-08T10:06:44.344Z,12.65
2023-05-08T10:09:13.315Z,13.07
2023-05-08T10:11:41.526Z,13.00
2023-05-08T10:14:08.757Z,12.77
2023-05-08T10:16:49.089Z,12.02
2023-05-08T10:19:18.191Z,13.52
2023-05-08T10:21:53.182Z,14.65
2023-05-08T10:24:25.765Z,14.20
2023-05-08T10:27:06.977Z,14.38
2023-05-08T10:29:43.015Z,14.88
2023-05-08T10:32:10.547Z,16.33
2023-05-08T10:34:40.754Z,15.95
2023-05-08T10:37:11.462Z,17.90
2023-05-08T10:39:38.746Z,16.83
2023-05-08T10:42:05.251Z,18.30
2023-05-08T10:44:32.537Z,19.83
2023-05-08T10:47:11.828Z,19.05
2023-05-08T10:49:38.233Z,20.33
2023-05-08T10:52:24.557Z,19.52
2023-05-08T10:54:53.906Z,19.77
2023-05-08T10:57:21.527Z,20.05
2023-05-08T10:59:48.036Z,21.80
2023-05-08T11:02:15.530Z,19.73
2023-05-08T11:04:43.923Z,18.40
2023-05-08T11:07:11.513Z,19.50
2023-05-08T11:09:41.033Z,20.75
2023-05-08T11:12:16.507Z,18.80
2023-05-08T11:14:45.836Z,21.48
2023-05-08T11:17:12.370Z,21.55
2023-05-08T11:19:38.988Z,20.65
2023-05-08T11:22:24.205Z,20.65
2023-05-08T11:24:54.881Z,21.52
2023-05-08T11:27:50.814Z,20.95
2023-05-08T11:30:25.590Z,21.75
2023-05-08T11:33:04.605Z,22.25
2023-05-08T11:36:01.558Z,23.73
2023-05-08T11:38:40.210Z,24.75
2023-05-08T11:41:10.381Z,24.33
2023-05-08T11:44:09.665Z,23.83
2023-05-08T11:46:48.348Z,24.20
2023-05-08T11:49:22.687Z,23.90
2023-05-08T11:51:57.848Z,23.40
2023-05-08T11:54:25.798Z,22.52
2023-05-08T11:56:57.008Z,22.60
2023-05-08T11:59:23.413Z,22.83
2023-05-08T12:04:21.228Z,23.27
2023-05-08T12:06:48.268Z,23.38
2023-05-08T12:09:17.432Z,23.05
2023-05-08T12:11:45.379Z,22.33
2023-05-08T12:14:13.860Z,22.25
2023-05-08T12:16:40.891Z,22.40
2023-05-08T12:19:12.357Z,23.55
2023-05-08T12:21:39.749Z,24.10
2023-05-08T12:24:18.749Z,22.13
2023-05-08T12:26:46.400Z,23.75
2023-05-08T12:29:12.851Z,20.30
2023-05-08T12:31:42.336Z,20.98
2023-05-08T12:34:10.027Z,20.45
2023-05-08T12:36:37.162Z,18.88
2023-05-08T12:39:15.198Z,20.17
2023-05-08T12:41:46.265Z,19.98
2023-05-08T12:44:38.982Z,20.15
2023-05-08T12:47:06.545Z,21.08
2023-05-08T12:49:33.019Z,18.00
2023-05-08T12:52:04.504Z,17.90
2023-05-08T12:54:33.781Z,17.92
2023-05-08T12:57:00.675Z,19.10
2023-05-08T12:59:33.576Z,17.98
2023-05-08T13:02:00.213Z,17.70
2023-05-08T13:04:27.204Z,16.90
2023-05-08T13:06:55.762Z,18.95
2023-05-08T13:11:50.015Z,15.32
2023-05-08T13:14:16.664Z,15.35
2023-05-08T13:16:47.843Z,16.08
2023-05-08T13:19:16.008Z,16.98
2023-05-08T13:21:44.695Z,15.75
2023-05-08T13:24:11.081Z,15.85
2023-05-08T13:26:37.537Z,16.30
2023-05-08T13:29:03.919Z,16.58
2023-05-08T13:31:30.698Z,17.25
2023-05-08T13:33:57.395Z,16.73
2023-05-08T13:36:24.470Z,15.68
2023-05-08T13:38:57.087Z,15.07
2023-05-08T13:41:23.473Z,17.33
2023-05-08T13:43:49.818Z,16.27
2023-05-08T13:46:16.370Z,15.57
2023-05-08T13:48:43.044Z,15.38
2023-05-08T13:51:09.443Z,16.10
2023-05-08T13:53:36.078Z,16.63
2023-05-08T13:56:02.670Z,16.23
2023-05-08T13:58:29.370Z,16.13
2023-05-08T14:00:55.741Z,15.32
2023-05-08T14:03:22.398Z,15.23
2023-05-08T14:05:48.875Z,15.57
2023-05-08T14:08:15.323Z,14.52
2023-05-08T14:10:41.835Z,15.68
2023-05-08T14:13:08.312Z,16.45
2023-05-08T14:15:37.272Z,15.43
2023-05-08T14:18:04.646Z,14.35
2023-05-08T14:20:31.070Z,15.07
2023-05-08T14:23:00.051Z,15.93
2023-05-08T14:25:26.906Z,15.07
2023-05-08T14:27:53.508Z,14.55
2023-05-08T14:30:19.990Z,15.70
2023-05-08T14:32:46.643Z,13.93
2023-05-08T14:35:14.418Z,13.95
2023-05-08T14:37:41.152Z,14.90
2023-05-08T14:40:08.298Z,14.82
2023-05-08T14:42:34.832Z,13.55
2023-05-08T14:45:01.414Z,14.50
2023-05-08T14:47:28.076Z,14.50
2023-05-08T14:49:54.672Z,14.95
2023-05-08T14:52:21.139Z,14.70
2023-05-08T14:57:39.551Z,14.50
2023-05-08T15:00:06.768Z,13.60
2023-05-08T15:02:33.368Z,14.35
2023-05-08T15:04:59.833Z,15.25
2023-05-08T15:07:26.244Z,13.65
2023-05-08T15:09:53.145Z,13.95
2023-05-08T15:12:19.639Z,14.93
2023-05-08T15:14:46.463Z,13.48
2023-05-08T15:17:12.922Z,14.98
2023-05-08T15:19:42.453Z,14.52
2023-05-08T15:22:08.989Z,13.65
2023-05-08T15:24:35.423Z,13.65
2023-05-08T15:27:01.944Z,13.80
2023-05-08T15:29:28.407Z,14.18
2023-05-08T15:31:54.998Z,15.68
2023-05-08T15:34:23.290Z,13.88
2023-05-08T15:36:49.988Z,14.60
2023-05-08T15:39:16.470Z,14.45
2023-05-08T15:41:42.862Z,14.82
2023-05-08T15:44:09.289Z,14.23
2023-05-08T15:46:36.173Z,14.80
2023-05-08T15:49:03.153Z,14.57
2023-05-08T15:51:30.015Z,15.18
2023-05-08T15:53:56.585Z,13.57
2023-05-08T15:56:24.604Z,14.27
2023-05-08T15:58:51.855Z,13.45
2023-05-08T16:01:19.390Z,14.02
2023-05-08T16:03:46.681Z,13.43
2023-05-08T16:06:13.611Z,13.38
2023-05-08T16:08:40.051Z,12.68
2023-05-08T16:11:06.509Z,15.00
2023-05-08T16:13:32.885Z,14.55
2023-05-08T16:16:06.358Z,14.80
2023-05-08T16:18:32.855Z,15.65
2023-05-08T16:20:59.234Z,15.48
2023-05-08T16:23:25.825Z,14.27
2023-05-08T16:25:52.745Z,16.20
2023-05-08T16:28:19.117Z,15.32
2023-05-08T16:30:45.825Z,14.90
2023-05-08T16:33:12.626Z,15.52
2023-05-08T16:35:39.985Z,15.82
2023-05-08T16:38:06.480Z,15.65
2023-05-08T16:40:32.996Z,15.70
2023-05-08T16:42:59.423Z,16.05
2023-05-08T16:45:25.943Z,16.30
2023-05-08T16:47:52.436Z,17.88
2023-05-08T16:50:19.014Z,16.55
2023-05-08T16:52:45.744Z,17.83
2023-05-08T16:55:12.467Z,21.08
2023-05-08T16:57:39.409Z,20.08
2023-05-08T17:00:06.702Z,19.70
2023-05-08T17:02:33.271Z,19.73
2023-05-08T17:04:59.789Z,20.75
2023-05-08T17:07:26.357Z,20.92
2023-05-08T17:09:57.275Z,20.63
2023-05-08T17:12:24.605Z,20.13
2023-05-08T17:14:51.122Z,22.13
2023-05-08T17:17:17.604Z,21.98
2023-05-08T17:19:44.091Z,23.50
2023-05-08T17:22:11.402Z,22.63
2023-05-08T17:24:38.008Z,22.00
2023-05-08T17:27:08.051Z,24.33
2023-05-08T17:29:34.911Z,22.77
2023-05-08T17:32:01.581Z,23.65
2023-05-08T17:34:28.300Z,22.58
2023-05-08T17:36:55.359Z,23.48
2023-05-08T17:39:22.337Z,22.38
2023-05-08T17:41:50.071Z,23.20
2023-05-08T17:44:17.266Z,23.45
2023-05-08T17:46:45.255Z,22.10
2023-05-08T17:49:11.736Z,23.33
2023-05-08T17:51:39.425Z,24.02
2023-05-08T17:54:06.781Z,22.05
2023-05-08T17:56:33.392Z,22.08
2023-05-08T17:58:59.797Z,22.50
2023-05-08T18:01:26.429Z,23.60
2023-05-08T18:03:53.694Z,22.83
2023-05-08T18:06:20.698Z,23.05
2023-05-08T18:08:47.604Z,21.60
2023-05-08T18:11:24.710Z,22.70
2023-05-08T18:13:53.054Z,21.00
2023-05-08T18:16:23.624Z,20.95
2023-05-08T18:18:50.460Z,21.40
2023-05-08T18:21:16.861Z,21.00
2023-05-08T18:23:43.881Z,19.38
2023-05-08T18:26:17.197Z,19.88
2023-05-08T18:28:44.487Z,19.42
2023-05-08T18:31:11.967Z,18.88
2023-05-08T18:33:38.824Z,18.70
2023-05-08T18:36:06.931Z,17.90
2023-05-08T18:38:34.216Z,19.20
2023-05-08T18:41:05.077Z,18.40
2023-05-08T18:43:31.691Z,18.23
2023-05-08T18:46:00.361Z,18.85
2023-05-08T18:48:27.257Z,17.70
2023-05-08T18:50:55.851Z,17.52
2023-05-08T19:00:41.414Z,15.75
2023-05-08T19:03:07.966Z,14.88
2023-05-08T19:05:34.378Z,16.30
2023-05-08T19:08:00.790Z,16.30
2023-05-08T19:10:27.292Z,16.15
2023-05-08T19:12:53.742Z,15.52
2023-05-08T19:15:20.226Z,14.82
2023-05-08T19:17:46.906Z,17.40
2023-05-08T19:20:13.707Z,15.73
2023-05-08T19:22:40.485Z,14.82
2023-05-08T19:25:07.174Z,15.07
2023-05-08T19:27:34.205Z,14.70
2023-05-08T19:30:00.894Z,15.80
2023-05-08T19:32:28.692Z,15.38
2023-05-08T19:34:57.343Z,15.82
2023-05-08T19:39:51.012Z,13.05
2023-05-08T19:42:17.468Z,14.07
2023-05-08T19:44:43.833Z,13.73
2023-05-08T19:47:10.393Z,12.63
2023-05-08T19:49:36.888Z,13.07
2023-05-08T19:52:03.383Z,14.25
2023-05-08T19:54:30.299Z,12.68
2023-05-08T19:56:57.159Z,12.85
2023-05-08T19:59:23.748Z,13.43
2023-05-08T20:01:50.357Z,12.80
2023-05-08T20:04:19.640Z,11.15
2023-05-08T20:06:46.248Z,12.25
2023-05-08T20:09:15.734Z,11.98
2023-05-08T20:11:44.094Z,12.18
2023-05-08T20:14:10.548Z,11.73
2023-05-08T20:16:37.236Z,13.23
2023-05-08T20:19:05.674Z,12.57
2023-05-08T20:21:33.837Z,12.80
2023-05-08T20:24:00.958Z,12.68
2023-05-08T20:26:29.052Z,11.65
2023-05-08T20:28:56.499Z,13.27
2023-05-08T20:31:23.111Z,12.93
2023-05-08T20:33:49.875Z,11.18
2023-05-08T20:36:16.506Z,12.18
2023-05-08T20:38:42.982Z,13.93
2023-05-08T20:41:09.410Z,14.13
2023-05-08T20:43:35.906Z,12.07
2023-05-08T20:46:02.763Z,12.43
2023-05-08T20:48:29.295Z,13.13
2023-05-08T20:50:55.932Z,12.68
2023-05-08T20:53:22.300Z,12.52
2023-05-08T20:55:48.862Z,14.02
2023-05-08T20:58:15.508Z,11.70
2023-05-08T21:00:41.913Z,13.02
2023-05-08T21:03:08.336Z,12.77
2023-05-08T21:05:34.846Z,13.10
2023-05-08T21:08:03.366Z,12.27
2023-05-08T21:10:31.447Z,11.93
2023-05-08T21:12:58.018Z,12.07
2023-05-08T21:15:24.536Z,12.50
2023-05-08T21:17:51.050Z,10.45
2023-05-08T21:20:18.081Z,11.73
2023-05-08T21:22:46.253Z,12.90
2023-05-08T21:25:14.870Z,11.85
2023-05-08T21:27:44.864Z,12.32
2023-05-08T21:30:16.300Z,11.15
2023-05-08T21:32:44.033Z,10.15
2023-05-08T21:35:11.924Z,10.13
2023-05-08T21:37:42.176Z,11.65
2023-05-08T21:40:09.652Z,10.40
2023-05-08T21:42:36.225Z,11.05
2023-05-08T21:45:02.751Z,10.43
2023-05-08T21:47:29.355Z,11.90
2023-05-08T21:49:55.994Z,9.90
2023-05-08T21:52:23.193Z,10.60
2023-05-08T21:54:50.276Z,10.93
2023-05-08T21:57:16.895Z,9.65
2023-05-08T21:59:43.442Z,11.10
2023-05-08T22:02:10.052Z,11.25
2023-05-08T22:04:36.537Z,12.20
2023-05-08T22:07:03.133Z,11.55
2023-05-08T22:09:29.810Z,11.35
2023-05-08T22:11:56.245Z,11.20
2023-05-08T22:14:22.708Z,11.30
2023-05-08T22:16:49.868Z,10.35
2023-05-08T22:19:16.459Z,9.95
2023-05-08T22:21:43.120Z,12.10
2023-05-08T22:24:09.554Z,10.93
2023-05-08T22:26:36.042Z,11.65
2023-05-08T22:29:02.467Z,11.38
2023-05-08T22:31:28.938Z,11.02
2023-05-08T22:33:57.435Z,12.10
2023-05-08T22:36:24.189Z,11.85
2023-05-08T22:38:50.701Z,11.13
2023-05-08T22:41:17.167Z,12.77
2023-05-08T22:43:43.652Z,11.77
2023-05-08T22:46:10.579Z,11.68
2023-05-08T22:48:37.570Z,11.18
2023-05-08T22:51:04.454Z,12.00
2023-05-08T22:53:30.904Z,11.63
2023-05-08T22:55:57.404Z,11.93
2023-05-08T22:58:25.170Z,11.85
2023-05-08T23:00:51.983Z,12.40
2023-05-08T23:03:18.526Z,11.90
2023-05-08T23:05:45.016Z,12.73
2023-05-08T23:08:11.438Z,12.55
2023-05-08T23:10:37.877Z,11.27
2023-05-08T23:13:04.335Z,12.55
2023-05-08T23:15:30.864Z,10.52
2023-05-08T23:17:57.514Z,10.55
2023-05-08T23:20:24.196Z,12.02
2023-05-08T23:22:50.689Z,12.63
2023-05-08T23:25:17.277Z,11.80
2023-05-08T23:27:43.894Z,12.13
2023-05-08T23:30:13.261Z,11.23
2023-05-08T23:32:40.162Z,12.10
2023-05-08T23:35:07.252Z,12.82
2023-05-08T23:37:33.733Z,11.52
2023-05-08T23:40:00.210Z,11.20
2023-05-08T23:42:27.135Z,12.43
2023-05-08T23:44:53.774Z,12.45
2023-05-08T23:47:22.392Z,11.70
2023-05-08T23:49:48.782Z,11.43
2023-05-08T23:52:15.310Z,12.45
2023-05-08T23:54:41.734Z,11.23
2023-05-08T23:57:09.369Z,11.60
2023-05-08T23:59:35.777Z,12.38
